createdAt,value
2023-01-19T00:00:02.218Z,987.25
2023-01-19T00:01:02.521Z,987.29
2023-01-19T00:02:02.812Z,987.33
2023-01-19T00:03:03.539Z,987.31
2023-01-19T00:04:03.441Z,987.32
2023-01-19T00:05:04.044Z,987.37
2023-01-19T00:06:03.915Z,987.33
2023-01-19T00:07:06.247Z,987.33
2023-01-19T00:08:04.697Z,987.34
2023-01-19T00:09:06.040Z,987.36
2023-01-19T00:10:05.448Z,987.38
2023-01-19T00:11:06.909Z,987.35
2023-01-19T00:12:06.159Z,987.36
2023-01-19T00:13:07.784Z,987.40
2023-01-19T00:14:07.832Z,987.32
2023-01-19T00:15:07.582Z,987.30
2023-01-19T00:16:16.916Z,987.35
2023-01-19T00:17:07.897Z,987.35
2023-01-19T00:18:09.700Z,987.36
2023-01-19T00:19:08.412Z,987.28
2023-01-19T00:20:08.243Z,987.32
2023-01-19T00:21:08.567Z,987.24
2023-01-19T00:22:08.932Z,987.25
2023-01-19T00:23:10.473Z,987.27
2023-01-19T00:24:09.289Z,987.20
2023-01-19T00:25:10.670Z,987.26
2023-01-19T00:26:12.235Z,987.27
2023-01-19T00:27:11.298Z,987.22
2023-01-19T00:28:10.679Z,987.23
2023-01-19T00:29:10.448Z,987.25
2023-01-19T00:30:10.774Z,987.32
2023-01-19T00:31:11.201Z,987.26
2023-01-19T00:32:11.015Z,987.30
2023-01-19T00:33:11.313Z,987.31
2023-01-19T00:34:11.764Z,987.35
2023-01-19T00:35:12.327Z,987.30
2023-01-19T00:36:12.036Z,987.36
2023-01-19T00:37:14.349Z,987.32
2023-01-19T00:38:12.573Z,987.33
2023-01-19T00:39:13.788Z,987.35
2023-01-19T00:40:13.001Z,987.33
2023-01-19T00:41:13.440Z,987.42
2023-01-19T00:42:13.963Z,987.35
2023-01-19T00:43:13.740Z,987.42
2023-01-19T00:44:14.345Z,987.42
2023-01-19T00:45:16.173Z,987.40
2023-01-19T00:46:16.685Z,987.41
2023-01-19T00:47:14.445Z,987.44
2023-01-19T00:48:15.819Z,987.43
2023-01-19T00:49:15.107Z,987.38
2023-01-19T00:50:15.756Z,987.38
2023-01-19T00:51:15.883Z,987.42
2023-01-19T00:52:17.124Z,987.40
2023-01-19T00:53:16.438Z,987.37
2023-01-19T00:54:17.682Z,987.44
2023-01-19T00:55:17.158Z,987.41
2023-01-19T00:56:16.977Z,987.41
2023-01-19T00:57:17.479Z,987.43
2023-01-19T00:58:18.194Z,987.44
2023-01-19T00:59:17.509Z,987.43
2023-01-19T01:00:18.062Z,987.39
2023-01-19T01:01:18.019Z,987.42
2023-01-19T01:02:19.086Z,987.41
2023-01-19T01:03:18.075Z,987.42
2023-01-19T01:04:18.395Z,987.42
2023-01-19T01:05:18.679Z,987.45
2023-01-19T01:06:20.057Z,987.46
2023-01-19T01:07:20.527Z,987.44
2023-01-19T01:08:20.358Z,987.38
2023-01-19T01:09:20.450Z,987.42
2023-01-19T01:10:19.822Z,987.41
2023-01-19T01:11:20.074Z,987.47
2023-01-19T01:12:20.362Z,987.37
2023-01-19T01:13:25.348Z,987.41
2023-01-19T01:14:21.087Z,987.44
2023-01-19T01:15:21.494Z,987.44
2023-01-19T01:16:22.776Z,987.46
2023-01-19T01:17:24.080Z,987.48
2023-01-19T01:18:22.660Z,987.57
2023-01-19T01:19:22.553Z,987.60
2023-01-19T01:21:26.568Z,987.51
2023-01-19T01:22:27.586Z,987.58
2023-01-19T01:23:26.556Z,987.58
2023-01-19T01:24:28.300Z,987.61
2023-01-19T01:25:26.927Z,987.56
2023-01-19T01:26:31.148Z,987.51
2023-01-19T01:27:28.095Z,987.55
2023-01-19T01:28:27.513Z,987.52
2023-01-19T01:29:27.581Z,987.49
2023-01-19T01:30:27.985Z,987.53
2023-01-19T01:31:28.464Z,987.55
2023-01-19T01:32:28.233Z,987.55
2023-01-19T01:33:41.340Z,987.55
2023-01-19T01:34:30.239Z,987.54
2023-01-19T01:35:28.975Z,987.53
2023-01-19T01:36:31.812Z,987.54
2023-01-19T01:37:30.627Z,987.56
2023-01-19T01:38:29.978Z,987.63
2023-01-19T01:39:30.469Z,987.61
2023-01-19T01:40:30.279Z,987.55
2023-01-19T01:41:30.528Z,987.57
2023-01-19T01:42:31.260Z,987.56
2023-01-19T01:43:31.137Z,987.53
2023-01-19T01:44:31.396Z,987.57
2023-01-19T01:45:31.830Z,987.58
2023-01-19T01:46:32.075Z,987.58
2023-01-19T01:47:31.859Z,987.55
2023-01-19T01:48:32.153Z,987.48
2023-01-19T01:49:34.620Z,987.50
2023-01-19T01:50:32.761Z,987.44
2023-01-19T01:51:34.040Z,987.51
2023-01-19T01:52:35.268Z,987.39
2023-01-19T01:53:34.829Z,987.45
2023-01-19T01:54:33.696Z,987.36
2023-01-19T01:55:34.212Z,987.43
2023-01-19T01:56:34.822Z,987.40
2023-01-19T01:57:35.642Z,987.32
2023-01-19T01:58:35.464Z,987.32
2023-01-19T01:59:41.189Z,987.32
2023-01-19T02:00:35.208Z,987.33
2023-01-19T02:01:35.928Z,987.37
2023-01-19T02:02:35.720Z,987.35
2023-01-19T02:03:36.164Z,987.34
2023-01-19T02:04:36.580Z,987.34
2023-01-19T02:05:36.144Z,987.33
2023-01-19T02:06:36.443Z,987.37
2023-01-19T02:07:38.650Z,987.34
2023-01-19T02:08:38.861Z,987.38
2023-01-19T02:09:37.323Z,987.36
2023-01-19T02:10:37.695Z,987.31
2023-01-19T02:11:37.435Z,987.34
2023-01-19T02:12:37.676Z,987.30
2023-01-19T02:13:37.973Z,987.33
2023-01-19T02:14:38.344Z,987.36
2023-01-19T02:15:38.820Z,987.34
2023-01-19T02:16:39.736Z,987.34
2023-01-19T02:17:39.504Z,987.34
2023-01-19T02:18:38.716Z,987.36
2023-01-19T02:19:39.152Z,987.34
2023-01-19T02:20:39.436Z,987.39
2023-01-19T02:21:39.659Z,987.36
2023-01-19T02:22:39.978Z,987.35
2023-01-19T02:23:40.304Z,987.39
2023-01-19T02:24:40.828Z,987.40
2023-01-19T02:25:40.602Z,987.36
2023-01-19T02:26:42.060Z,987.39
2023-01-19T02:27:42.349Z,987.39
2023-01-19T02:28:41.163Z,987.37
2023-01-19T02:29:41.355Z,987.39
2023-01-19T02:30:41.692Z,987.41
2023-01-19T02:31:42.806Z,987.48
2023-01-19T02:32:42.219Z,987.42
2023-01-19T02:33:42.677Z,987.46
2023-01-19T02:34:42.492Z,987.44
2023-01-19T02:35:43.940Z,987.45
2023-01-19T02:36:43.367Z,987.38
2023-01-19T02:37:44.727Z,987.41
2023-01-19T02:38:44.116Z,987.40
2023-01-19T02:39:44.062Z,987.40
2023-01-19T02:40:46.564Z,987.29
2023-01-19T02:41:44.432Z,987.37
2023-01-19T02:42:44.822Z,987.37
2023-01-19T02:43:46.071Z,987.31
2023-01-19T02:44:46.367Z,987.35
2023-01-19T02:45:45.674Z,987.36
2023-01-19T02:46:47.270Z,987.28
2023-01-19T02:47:47.963Z,987.30
2023-01-19T02:48:46.356Z,987.35
2023-01-19T02:49:46.674Z,987.42
2023-01-19T02:50:47.958Z,987.42
2023-01-19T02:51:47.309Z,987.48
2023-01-19T02:52:49.058Z,987.47
2023-01-19T02:53:47.863Z,987.54
2023-01-19T02:54:48.070Z,987.53
2023-01-19T02:55:49.244Z,987.53
2023-01-19T02:56:48.481Z,987.54
2023-01-19T02:57:49.660Z,987.53
2023-01-19T02:58:49.018Z,987.47
2023-01-19T02:59:49.210Z,987.51
2023-01-19T03:00:51.404Z,987.50
2023-01-19T03:01:50.801Z,987.53
2023-01-19T03:02:50.465Z,987.55
2023-01-19T03:03:50.278Z,987.48
2023-01-19T03:04:50.628Z,987.52
2023-01-19T03:05:52.010Z,987.45
2023-01-19T03:06:52.188Z,987.50
2023-01-19T03:07:52.410Z,987.46
2023-01-19T03:08:51.911Z,987.44
2023-01-19T03:09:51.653Z,987.45
2023-01-19T03:10:52.050Z,987.39
2023-01-19T03:11:52.342Z,987.36
2023-01-19T03:12:52.564Z,987.39
2023-01-19T03:13:52.850Z,987.37
2023-01-19T03:14:53.142Z,987.37
2023-01-19T03:15:53.455Z,987.31
2023-01-19T03:16:53.881Z,987.39
2023-01-19T03:17:55.077Z,987.39
2023-01-19T03:18:54.902Z,987.38
2023-01-19T03:19:56.974Z,987.33
2023-01-19T03:20:56.467Z,987.32
2023-01-19T03:21:56.721Z,987.40
2023-01-19T03:22:55.099Z,987.35
2023-01-19T03:23:57.270Z,987.27
2023-01-19T03:24:57.529Z,987.31
2023-01-19T03:25:55.837Z,987.31
2023-01-19T03:26:56.623Z,987.28
2023-01-19T03:27:58.456Z,987.22
2023-01-19T03:28:57.709Z,987.22
2023-01-19T03:29:57.751Z,987.22
2023-01-19T03:30:57.169Z,987.26
2023-01-19T03:31:57.409Z,987.21
2023-01-19T03:32:58.048Z,987.24
2023-01-19T03:33:59.299Z,987.25
2023-01-19T03:34:58.697Z,987.16
2023-01-19T03:35:59.084Z,987.19
2023-01-19T03:37:00.283Z,987.21
2023-01-19T03:37:59.579Z,987.16
2023-01-19T03:38:59.971Z,987.20
2023-01-19T03:40:00.282Z,987.17
2023-01-19T03:41:00.650Z,987.15
2023-01-19T03:42:00.967Z,987.12
2023-01-19T03:43:01.652Z,987.14
2023-01-19T03:44:02.639Z,987.10
2023-01-19T03:47:24.859Z,987.17
2023-01-19T03:48:24.793Z,987.17
2023-01-19T03:49:24.584Z,987.22
2023-01-19T03:50:24.957Z,987.19
2023-01-19T03:51:25.290Z,987.25
2023-01-19T03:52:25.581Z,987.17
2023-01-19T03:53:25.895Z,987.21
2023-01-19T03:54:30.288Z,987.26
2023-01-19T03:55:26.495Z,987.23
2023-01-19T03:56:27.708Z,987.23
2023-01-19T03:57:28.962Z,987.23
2023-01-19T03:58:27.211Z,987.18
2023-01-19T03:59:29.946Z,987.20
2023-01-19T04:00:27.839Z,987.16
2023-01-19T04:01:29.347Z,987.17
2023-01-19T04:02:28.213Z,987.24
2023-01-19T04:03:28.653Z,987.21
2023-01-19T04:04:29.886Z,987.22
2023-01-19T04:05:29.304Z,987.21
2023-01-19T04:06:31.008Z,987.18
2023-01-19T04:07:30.776Z,987.21
2023-01-19T04:08:30.944Z,987.22
2023-01-19T04:09:31.719Z,987.28
2023-01-19T04:10:31.500Z,987.25
2023-01-19T04:11:32.861Z,987.21
2023-01-19T04:12:31.168Z,987.22
2023-01-19T04:13:31.421Z,987.24
2023-01-19T04:14:31.735Z,987.22
2023-01-19T04:15:31.956Z,987.25
2023-01-19T04:16:33.136Z,987.25
2023-01-19T04:17:32.396Z,987.18
2023-01-19T04:18:33.913Z,987.24
2023-01-19T04:19:36.128Z,987.23
2023-01-19T04:20:33.425Z,987.22
2023-01-19T04:21:33.663Z,987.30
2023-01-19T04:22:34.848Z,987.24
2023-01-19T04:23:36.599Z,987.25
2023-01-19T04:24:34.399Z,987.21
2023-01-19T04:25:37.884Z,987.23
2023-01-19T04:26:36.829Z,987.21
2023-01-19T04:27:35.077Z,987.20
2023-01-19T04:28:35.301Z,987.22
2023-01-19T04:29:37.727Z,987.30
2023-01-19T04:30:36.908Z,987.22
2023-01-19T04:31:36.292Z,987.23
2023-01-19T04:32:36.580Z,987.20
2023-01-19T04:33:36.754Z,987.16
2023-01-19T04:34:37.068Z,987.22
2023-01-19T04:35:39.265Z,987.23
2023-01-19T04:36:39.564Z,987.23
2023-01-19T04:37:38.873Z,987.18
2023-01-19T04:38:38.129Z,987.21
2023-01-19T04:39:38.477Z,987.25
2023-01-19T04:40:38.997Z,987.21
2023-01-19T04:41:38.716Z,987.26
2023-01-19T04:42:38.989Z,987.19
2023-01-19T04:43:41.166Z,987.23
2023-01-19T04:44:39.459Z,987.26
2023-01-19T04:45:41.612Z,987.28
2023-01-19T04:46:39.861Z,987.23
2023-01-19T04:47:41.529Z,987.23
2023-01-19T04:48:41.378Z,987.18
2023-01-19T04:49:42.543Z,987.15
2023-01-19T04:50:40.747Z,987.16
2023-01-19T04:51:42.240Z,987.23
2023-01-19T04:52:41.047Z,987.15
2023-01-19T04:53:42.402Z,987.23
2023-01-19T04:54:41.654Z,987.27
2023-01-19T04:55:41.937Z,987.21
2023-01-19T04:56:42.178Z,987.22
2023-01-19T04:57:43.419Z,987.28
2023-01-19T04:58:42.722Z,987.26
2023-01-19T04:59:43.039Z,987.22
2023-01-19T05:00:45.324Z,987.19
2023-01-19T05:01:43.788Z,987.17
2023-01-19T05:02:43.678Z,987.15
2023-01-19T05:03:44.422Z,987.16
2023-01-19T05:04:44.187Z,987.15
2023-01-19T05:05:45.519Z,987.17
2023-01-19T05:06:44.545Z,987.13
2023-01-19T05:07:45.772Z,987.18
2023-01-19T05:08:45.525Z,987.15
2023-01-19T05:09:46.564Z,987.21
2023-01-19T05:10:45.293Z,987.25
2023-01-19T05:11:45.667Z,987.22
2023-01-19T05:12:47.902Z,987.25
2023-01-19T05:13:46.148Z,987.21
2023-01-19T05:14:46.433Z,987.20
2023-01-19T05:15:46.759Z,987.25
2023-01-19T05:16:47.123Z,987.28
2023-01-19T05:17:47.379Z,987.27
2023-01-19T05:18:47.638Z,987.28
2023-01-19T05:19:47.869Z,987.31
2023-01-19T05:20:48.171Z,987.31
2023-01-19T05:21:50.439Z,987.32
2023-01-19T05:22:48.722Z,987.32
2023-01-19T05:23:49.089Z,987.32
2023-01-19T05:24:49.346Z,987.38
2023-01-19T05:25:49.575Z,987.39
2023-01-19T05:26:50.793Z,987.40
2023-01-19T05:27:50.044Z,987.38
2023-01-19T05:28:50.258Z,987.37
2023-01-19T05:29:50.616Z,987.34
2023-01-19T05:30:50.871Z,987.31
2023-01-19T05:31:51.157Z,987.39
2023-01-19T05:32:51.563Z,987.34
2023-01-19T05:33:51.799Z,987.37
2023-01-19T05:34:52.214Z,987.37
2023-01-19T05:35:54.636Z,987.35
2023-01-19T05:36:57.760Z,987.36
2023-01-19T05:37:55.242Z,987.36
2023-01-19T05:38:53.981Z,987.39
2023-01-19T05:39:53.479Z,987.41
2023-01-19T05:40:53.303Z,987.41
2023-01-19T05:41:53.737Z,987.45
2023-01-19T05:42:53.509Z,987.43
2023-01-19T05:43:53.920Z,987.50
2023-01-19T05:44:55.282Z,987.50
2023-01-19T05:45:54.601Z,987.43
2023-01-19T05:46:55.833Z,987.47
2023-01-19T05:47:55.340Z,987.47
2023-01-19T05:48:55.059Z,987.48
2023-01-19T05:49:55.264Z,987.50
2023-01-19T05:50:55.487Z,987.48
2023-01-19T05:51:55.719Z,987.49
2023-01-19T05:52:57.027Z,987.45
2023-01-19T05:53:56.245Z,987.48
2023-01-19T05:54:56.497Z,987.46
2023-01-19T05:55:56.768Z,987.45
2023-01-19T05:56:59.013Z,987.48
2023-01-19T05:57:57.414Z,987.49
2023-01-19T05:58:58.600Z,987.50
2023-01-19T05:59:57.900Z,987.52
2023-01-19T06:00:58.262Z,987.53
2023-01-19T06:01:58.600Z,987.53
2023-01-19T06:02:59.348Z,987.51
2023-01-19T06:03:59.287Z,987.51
2023-01-19T06:05:00.406Z,987.46
2023-01-19T06:06:03.059Z,987.49
2023-01-19T06:07:06.233Z,987.40
2023-01-19T06:08:01.841Z,987.38
2023-01-19T06:09:04.107Z,987.38
2023-01-19T06:10:01.160Z,987.44
2023-01-19T06:11:01.102Z,987.44
2023-01-19T06:12:02.700Z,987.37
2023-01-19T06:13:02.049Z,987.45
2023-01-19T06:14:02.221Z,987.46
2023-01-19T06:15:02.633Z,987.42
2023-01-19T06:16:03.010Z,987.41
2023-01-19T06:17:04.175Z,987.43
2023-01-19T06:18:03.562Z,987.47
2023-01-19T06:19:02.958Z,987.45
2023-01-19T06:20:03.332Z,987.40
2023-01-19T06:21:04.076Z,987.44
2023-01-19T06:22:08.127Z,987.46
2023-01-19T06:23:07.789Z,987.47
2023-01-19T06:24:04.539Z,987.46
2023-01-19T06:25:06.689Z,987.50
2023-01-19T06:26:06.387Z,987.43
2023-01-19T06:27:05.836Z,987.48
2023-01-19T06:28:07.548Z,987.48
2023-01-19T06:29:07.631Z,987.54
2023-01-19T06:30:13.707Z,987.47
2023-01-19T06:31:20.653Z,987.44
2023-01-19T06:32:08.003Z,987.53
2023-01-19T06:33:07.697Z,987.49
2023-01-19T06:34:08.236Z,987.52
2023-01-19T06:35:08.509Z,987.49
2023-01-19T06:36:10.562Z,987.50
2023-01-19T06:37:12.537Z,987.48
2023-01-19T06:38:09.094Z,987.50
2023-01-19T06:39:08.922Z,987.50
2023-01-19T06:40:08.464Z,987.44
2023-01-19T06:41:08.547Z,987.42
2023-01-19T06:42:15.465Z,987.41
2023-01-19T06:43:09.302Z,987.40
2023-01-19T06:44:12.154Z,987.45
2023-01-19T06:45:09.913Z,987.42
2023-01-19T06:46:11.468Z,987.40
2023-01-19T06:47:15.032Z,987.44
2023-01-19T06:48:10.115Z,987.44
2023-01-19T06:49:10.200Z,987.47
2023-01-19T06:50:11.875Z,987.47
2023-01-19T06:51:10.728Z,987.35
2023-01-19T06:52:11.395Z,987.40
2023-01-19T06:53:10.736Z,987.44
2023-01-19T06:54:10.937Z,987.49
2023-01-19T06:55:11.156Z,987.39
2023-01-19T06:56:16.282Z,987.41
2023-01-19T06:57:11.479Z,987.37
2023-01-19T06:58:12.969Z,987.39
2023-01-19T06:59:12.679Z,987.41
2023-01-19T07:02:00.555Z,987.41
2023-01-19T07:03:00.815Z,987.33
2023-01-19T07:04:11.942Z,987.40
2023-01-19T07:04:59.220Z,987.38
2023-01-19T07:05:58.973Z,987.40
2023-01-19T07:06:55.416Z,987.36
2023-01-19T07:07:59.401Z,987.39
2023-01-19T07:09:04.447Z,987.37
2023-01-19T07:09:59.847Z,987.46
2023-01-19T07:11:23.583Z,987.45
2023-01-19T07:11:55.671Z,987.33
2023-01-19T07:12:55.948Z,987.42
2023-01-19T07:13:58.049Z,987.35
2023-01-19T07:15:00.505Z,987.40
2023-01-19T07:15:56.510Z,987.38
2023-01-19T07:17:01.976Z,987.42
2023-01-19T07:17:57.951Z,987.42
2023-01-19T07:18:57.213Z,987.44
2023-01-19T07:20:14.692Z,987.51
2023-01-19T07:21:13.542Z,987.54
2023-01-19T07:22:03.021Z,987.51
2023-01-19T07:23:05.965Z,987.44
2023-01-19T07:24:11.411Z,987.43
2023-01-19T07:24:58.743Z,987.54
2023-01-19T07:26:00.364Z,987.49
2023-01-19T07:27:02.753Z,987.55
2023-01-19T07:27:59.980Z,987.55
2023-01-19T07:28:58.412Z,987.48
2023-01-19T07:29:58.437Z,987.52
2023-01-19T07:31:00.692Z,987.50
2023-01-19T07:31:59.269Z,987.48
2023-01-19T07:32:59.980Z,987.53
2023-01-19T07:33:59.193Z,987.59
2023-01-19T07:34:59.578Z,987.54
2023-01-19T07:36:00.202Z,987.54
2023-01-19T07:37:00.184Z,987.55
2023-01-19T07:38:00.161Z,987.50
2023-01-19T07:39:00.835Z,987.63
2023-01-19T07:40:00.883Z,987.56
2023-01-19T07:41:03.306Z,987.62
2023-01-19T07:42:00.884Z,987.58
2023-01-19T07:43:01.685Z,987.64
2023-01-19T07:44:01.621Z,987.63
2023-01-19T07:45:01.807Z,987.72
2023-01-19T07:46:11.574Z,987.76
2023-01-19T07:47:01.935Z,987.68
2023-01-19T07:48:02.128Z,987.61
2023-01-19T07:49:09.255Z,987.71
2023-01-19T07:50:02.320Z,987.71
2023-01-19T07:51:02.624Z,987.72
2023-01-19T07:52:10.263Z,987.64
2023-01-19T07:53:03.412Z,987.63
2023-01-19T07:54:03.927Z,987.71
2023-01-19T07:55:03.845Z,987.68
2023-01-19T07:56:04.297Z,987.68
2023-01-19T07:57:05.507Z,987.74
2023-01-19T07:58:05.279Z,987.73
2023-01-19T07:59:06.106Z,987.71
2023-01-19T08:00:08.943Z,987.77
2023-01-19T08:01:06.398Z,987.74
2023-01-19T08:02:08.776Z,987.77
2023-01-19T08:03:07.453Z,987.81
2023-01-19T08:04:07.471Z,987.84
2023-01-19T08:05:07.437Z,987.77
2023-01-19T08:06:07.530Z,987.87
2023-01-19T08:07:07.700Z,987.85
2023-01-19T08:08:07.188Z,987.87
2023-01-19T08:09:08.036Z,987.86
2023-01-19T08:10:07.330Z,987.85
2023-01-19T08:11:07.772Z,987.95
2023-01-19T08:12:07.825Z,987.94
2023-01-19T08:13:08.667Z,988.02
2023-01-19T08:14:08.635Z,987.98
2023-01-19T08:15:08.459Z,987.96
2023-01-19T08:16:12.516Z,987.98
2023-01-19T08:17:08.535Z,988.00
2023-01-19T08:18:08.856Z,987.96
2023-01-19T08:19:09.662Z,988.01
2023-01-19T08:20:13.210Z,987.94
2023-01-19T08:21:09.738Z,987.98
2023-01-19T08:22:09.676Z,988.05
2023-01-19T08:23:10.150Z,987.96
2023-01-19T08:24:10.332Z,987.99
2023-01-19T08:25:09.918Z,987.95
2023-01-19T08:26:10.173Z,988.01
2023-01-19T08:27:11.548Z,987.98
2023-01-19T08:28:11.135Z,988.00
2023-01-19T08:29:11.775Z,987.96
2023-01-19T08:30:11.259Z,987.98
2023-01-19T08:31:20.856Z,987.96
2023-01-19T08:32:11.294Z,987.97
2023-01-19T08:33:11.364Z,988.02
2023-01-19T08:34:11.473Z,987.97
2023-01-19T08:35:11.451Z,988.02
2023-01-19T08:36:12.212Z,988.02
2023-01-19T08:37:13.011Z,988.05
2023-01-19T08:38:13.189Z,988.09
2023-01-19T08:39:13.629Z,988.00
2023-01-19T08:40:13.052Z,987.94
2023-01-19T08:41:13.691Z,987.94
2023-01-19T08:42:13.646Z,988.01
2023-01-19T08:43:13.929Z,987.99
2023-01-19T08:44:14.879Z,987.95
2023-01-19T08:45:14.230Z,988.02
2023-01-19T08:46:14.716Z,988.00
2023-01-19T08:47:15.699Z,988.02
2023-01-19T08:48:15.724Z,988.07
2023-01-19T08:49:15.609Z,988.05
2023-01-19T08:50:15.808Z,988.09
2023-01-19T08:51:15.886Z,988.04
2023-01-19T08:52:15.783Z,988.09
2023-01-19T08:53:16.946Z,988.08
2023-01-19T08:54:18.589Z,988.07
2023-01-19T08:55:17.199Z,988.11
2023-01-19T08:56:18.959Z,988.12
2023-01-19T08:57:18.503Z,988.12
2023-01-19T08:58:17.447Z,988.13
2023-01-19T08:59:17.883Z,988.14
2023-01-19T09:00:18.420Z,988.14
2023-01-19T09:01:18.473Z,988.16
2023-01-19T09:02:18.614Z,988.14
2023-01-19T09:03:18.497Z,988.14
2023-01-19T09:04:18.773Z,988.15
2023-01-19T09:05:19.887Z,988.17
2023-01-19T09:06:20.189Z,988.24
2023-01-19T09:07:19.874Z,988.21
2023-01-19T09:08:20.818Z,988.24
2023-01-19T09:09:20.533Z,988.22
2023-01-19T09:10:20.451Z,988.29
2023-01-19T09:11:20.772Z,988.31
2023-01-19T09:12:21.166Z,988.27
2023-01-19T09:13:22.315Z,988.30
2023-01-19T09:14:22.396Z,988.29
2023-01-19T09:15:22.159Z,988.28
2023-01-19T09:16:22.157Z,988.28
2023-01-19T09:17:22.290Z,988.32
2023-01-19T09:18:22.098Z,988.37
2023-01-19T09:19:23.577Z,988.28
2023-01-19T09:20:22.830Z,988.31
2023-01-19T09:21:22.940Z,988.31
2023-01-19T09:22:24.004Z,988.34
2023-01-19T09:23:23.856Z,988.31
2023-01-19T09:24:24.123Z,988.39
2023-01-19T09:25:23.649Z,988.38
2023-01-19T09:26:24.229Z,988.40
2023-01-19T09:27:24.258Z,988.32
2023-01-19T09:28:25.406Z,988.36
2023-01-19T09:29:25.273Z,988.43
2023-01-19T09:30:26.544Z,988.42
2023-01-19T09:31:24.985Z,988.38
2023-01-19T09:32:25.454Z,988.44
2023-01-19T09:33:25.956Z,988.44
2023-01-19T09:34:27.099Z,988.43
2023-01-19T09:35:27.465Z,988.39
2023-01-19T09:38:26.133Z,988.40
2023-01-19T09:39:08.642Z,988.51
2023-01-19T09:40:07.123Z,988.44
2023-01-19T09:41:07.490Z,988.41
2023-01-19T09:42:09.362Z,988.41
2023-01-19T09:43:09.494Z,988.49
2023-01-19T09:45:52.475Z,988.49
2023-01-19T09:46:50.818Z,988.49
2023-01-19T09:47:51.127Z,988.54
2023-01-19T09:48:50.883Z,988.55
2023-01-19T09:49:51.677Z,988.52
2023-01-19T09:50:51.380Z,988.56
2023-01-19T09:51:53.335Z,988.58
2023-01-19T09:52:51.751Z,988.52
2023-01-19T09:53:55.993Z,988.57
2023-01-19T09:54:56.047Z,988.53
2023-01-19T09:55:53.815Z,988.60
2023-01-19T09:58:37.933Z,988.61
2023-01-19T09:59:34.568Z,988.60
2023-01-19T10:00:34.255Z,988.67
2023-01-19T10:01:35.254Z,988.66
2023-01-19T10:02:35.415Z,988.68
2023-01-19T10:03:34.797Z,988.68
2023-01-19T10:04:38.431Z,988.72
2023-01-19T10:05:35.076Z,988.69
2023-01-19T10:06:36.809Z,988.70
2023-01-19T10:07:36.138Z,988.72
2023-01-19T10:08:36.632Z,988.72
2023-01-19T10:09:36.191Z,988.68
2023-01-19T10:10:36.699Z,988.71
2023-01-19T10:11:51.643Z,988.72
2023-01-19T10:12:41.092Z,988.70
2023-01-19T10:13:37.187Z,988.72
2023-01-19T10:14:37.361Z,988.76
2023-01-19T10:15:38.056Z,988.68
2023-01-19T10:16:38.065Z,988.71
2023-01-19T10:17:38.175Z,988.71
2023-01-19T10:18:38.531Z,988.71
2023-01-19T10:19:38.972Z,988.74
2023-01-19T10:20:41.243Z,988.69
2023-01-19T10:21:38.120Z,988.71
2023-01-19T10:22:39.176Z,988.73
2023-01-19T10:23:39.729Z,988.75
2023-01-19T10:24:38.802Z,988.73
2023-01-19T10:25:38.339Z,988.77
2023-01-19T10:26:38.379Z,988.72
2023-01-19T10:27:39.005Z,988.76
2023-01-19T10:28:38.933Z,988.70
2023-01-19T10:29:38.380Z,988.74
2023-01-19T10:30:39.932Z,988.71
2023-01-19T10:31:39.036Z,988.70
2023-01-19T10:32:39.193Z,988.76
2023-01-19T10:33:39.041Z,988.74
2023-01-19T10:34:40.107Z,988.73
2023-01-19T10:35:39.803Z,988.83
2023-01-19T10:36:39.834Z,988.78
2023-01-19T10:37:39.967Z,988.81
2023-01-19T10:38:39.963Z,988.84
2023-01-19T10:39:39.854Z,988.82
2023-01-19T10:40:40.649Z,988.85
2023-01-19T10:41:40.712Z,988.87
2023-01-19T10:42:40.875Z,988.87
2023-01-19T10:43:45.544Z,988.81
2023-01-19T10:44:41.183Z,988.86
2023-01-19T10:45:41.417Z,988.82
2023-01-19T10:46:42.354Z,988.87
2023-01-19T10:47:41.443Z,988.88
2023-01-19T10:48:42.257Z,988.91
2023-01-19T10:49:41.955Z,988.89
2023-01-19T10:50:41.856Z,988.95
2023-01-19T10:51:42.402Z,988.97
2023-01-19T10:52:42.506Z,988.91
2023-01-19T10:53:42.689Z,988.96
2023-01-19T10:54:42.558Z,988.99
2023-01-19T10:55:43.091Z,989.01
2023-01-19T10:56:44.471Z,989.00
2023-01-19T10:57:43.764Z,988.99
2023-01-19T10:58:43.997Z,989.01
2023-01-19T10:59:44.993Z,989.07
2023-01-19T11:00:44.681Z,989.09
2023-01-19T11:01:45.337Z,989.04
2023-01-19T11:02:45.642Z,989.05
2023-01-19T11:03:46.218Z,989.13
2023-01-19T11:04:47.334Z,989.11
2023-01-19T11:05:45.529Z,989.11
2023-01-19T11:06:45.793Z,989.13
2023-01-19T11:07:46.145Z,989.17
2023-01-19T11:08:46.504Z,989.14
2023-01-19T11:09:47.113Z,989.10
2023-01-19T11:10:49.211Z,989.09
2023-01-19T11:11:48.236Z,989.08
2023-01-19T11:14:50.205Z,989.12
2023-01-19T11:15:47.892Z,989.07
2023-01-19T11:16:47.926Z,989.05
2023-01-19T11:17:49.241Z,989.08
2023-01-19T11:18:49.065Z,989.13
2023-01-19T11:19:48.867Z,989.13
2023-01-19T11:20:50.036Z,989.17
2023-01-19T11:21:49.412Z,989.17
2023-01-19T11:22:49.564Z,989.23
2023-01-19T11:23:51.712Z,989.18
2023-01-19T11:24:49.787Z,989.13
2023-01-19T11:25:50.809Z,989.19
2023-01-19T11:26:50.872Z,989.24
2023-01-19T11:27:50.914Z,989.21
2023-01-19T11:28:51.944Z,989.27
2023-01-19T11:29:51.372Z,989.25
2023-01-19T11:30:52.110Z,989.28
2023-01-19T11:31:53.308Z,989.31
2023-01-19T11:32:52.350Z,989.32
2023-01-19T11:33:53.677Z,989.30
2023-01-19T11:34:53.710Z,989.29
2023-01-19T11:35:53.351Z,989.30
2023-01-19T11:36:53.336Z,989.26
2023-01-19T11:37:53.696Z,989.30
2023-01-19T11:38:54.989Z,989.25
2023-01-19T11:39:54.305Z,989.28
2023-01-19T11:40:55.343Z,989.29
2023-01-19T11:41:55.192Z,989.30
2023-01-19T11:42:55.596Z,989.30
2023-01-19T11:43:55.212Z,989.27
2023-01-19T11:44:57.399Z,989.24
2023-01-19T11:45:55.713Z,989.25
2023-01-19T11:46:56.111Z,989.23
2023-01-19T11:47:57.032Z,989.27
2023-01-19T11:48:57.615Z,989.30
2023-01-19T11:49:59.045Z,989.27
2023-01-19T11:50:58.098Z,989.27
2023-01-19T11:51:58.655Z,989.27
2023-01-19T11:53:02.319Z,989.25
2023-01-19T11:54:00.561Z,989.28
2023-01-19T12:09:59.262Z,989.37
2023-01-19T12:10:44.117Z,989.34
2023-01-19T12:11:43.232Z,989.27
2023-01-19T12:12:47.449Z,989.31
2023-01-19T12:13:47.846Z,989.34
2023-01-19T12:14:44.356Z,989.38
2023-01-19T12:15:43.922Z,989.31
2023-01-19T12:16:43.472Z,989.29
2023-01-19T12:17:43.131Z,989.38
2023-01-19T12:18:43.476Z,989.29
2023-01-19T12:19:43.175Z,989.32
2023-01-19T12:20:42.719Z,989.28
2023-01-19T12:21:45.136Z,989.29
2023-01-19T12:22:44.003Z,989.27
2023-01-19T12:23:43.699Z,989.35
2023-01-19T12:24:44.249Z,989.31
2023-01-19T12:25:44.492Z,989.27
2023-01-19T12:26:45.055Z,989.35
2023-01-19T12:27:44.391Z,989.34
2023-01-19T12:28:44.673Z,989.28
2023-01-19T12:29:44.417Z,989.37
2023-01-19T12:30:45.185Z,989.30
2023-01-19T12:31:45.445Z,989.38
2023-01-19T12:32:45.993Z,989.40
2023-01-19T12:33:45.742Z,989.36
2023-01-19T12:34:47.874Z,989.44
2023-01-19T12:35:46.735Z,989.42
2023-01-19T12:36:46.852Z,989.44
2023-01-19T12:37:46.219Z,989.45
2023-01-19T12:38:46.623Z,989.46
2023-01-19T12:39:48.151Z,989.46
2023-01-19T12:40:48.198Z,989.48
2023-01-19T12:41:49.086Z,989.52
2023-01-19T12:42:47.533Z,989.56
2023-01-19T12:43:47.700Z,989.54
2023-01-19T12:44:48.591Z,989.56
2023-01-19T12:45:48.453Z,989.54
2023-01-19T12:46:50.596Z,989.55
2023-01-19T12:47:52.741Z,989.56
2023-01-19T12:48:50.019Z,989.54
2023-01-19T12:49:49.284Z,989.60
2023-01-19T12:50:50.376Z,989.59
2023-01-19T12:51:50.216Z,989.61
2023-01-19T12:52:50.307Z,989.63
2023-01-19T12:53:50.135Z,989.66
2023-01-19T12:54:51.297Z,989.60
2023-01-19T12:55:50.428Z,989.64
2023-01-19T12:56:51.927Z,989.68
2023-01-19T12:57:51.278Z,989.64